createdAt,value
2023-04-16T00:00:11.065Z,3.38
2023-04-16T00:00:42.459Z,3.40
2023-04-16T00:01:13.938Z,3.85
2023-04-16T00:01:45.347Z,3.83
2023-04-16T00:02:17.046Z,2.93
2023-04-16T00:02:48.597Z,3.00
2023-04-16T00:03:20.581Z,3.83
2023-04-16T00:03:52.493Z,3.55
2023-04-16T00:04:24.393Z,3.40
2023-04-16T00:04:56.055Z,3.05
2023-04-16T00:05:27.588Z,3.65
2023-04-16T00:05:59.370Z,3.80
2023-04-16T00:06:31.806Z,4.63
2023-04-16T00:07:03.198Z,2.67
2023-04-16T00:07:34.771Z,3.33
2023-04-16T00:08:06.444Z,3.35
2023-04-16T00:08:38.119Z,2.90
2023-04-16T00:09:09.775Z,3.25
2023-04-16T00:09:41.308Z,3.45
2023-04-16T00:10:12.664Z,2.85
2023-04-16T00:10:44.103Z,2.70
2023-04-16T00:11:15.872Z,2.85
2023-04-16T00:11:47.249Z,2.97
2023-04-16T00:12:18.794Z,3.00
2023-04-16T00:12:50.393Z,3.30
2023-04-16T00:13:22.565Z,4.00
2023-04-16T00:13:54.011Z,3.55
2023-04-16T00:14:25.599Z,3.38
2023-04-16T00:14:57.078Z,2.50
2023-04-16T00:15:28.414Z,2.88
2023-04-16T00:15:59.830Z,3.45
2023-04-16T00:16:31.432Z,3.53
2023-04-16T00:17:03.023Z,2.38
2023-04-16T00:17:34.669Z,2.78
2023-04-16T00:18:06.140Z,3.73
2023-04-16T00:18:37.651Z,2.53
2023-04-16T00:19:09.202Z,3.25
2023-04-16T00:19:40.961Z,2.85
2023-04-16T00:20:12.446Z,2.72
2023-04-16T00:20:43.830Z,3.80
2023-04-16T00:21:15.481Z,3.20
2023-04-16T00:21:46.954Z,3.45
2023-04-16T00:22:18.876Z,3.40
2023-04-16T00:22:51.332Z,4.22
2023-04-16T00:23:24.866Z,2.80
2023-04-16T00:23:56.266Z,3.63
2023-04-16T00:24:27.828Z,3.35
2023-04-16T00:24:59.266Z,3.65
2023-04-16T00:25:31.371Z,3.67
2023-04-16T00:26:02.734Z,3.45
2023-04-16T00:26:34.504Z,3.83
2023-04-16T00:27:06.364Z,3.45
2023-04-16T00:27:37.779Z,3.53
2023-04-16T00:28:11.002Z,3.53
2023-04-16T00:28:42.795Z,3.67
2023-04-16T00:29:14.127Z,4.00
2023-04-16T00:29:45.746Z,3.30
2023-04-16T00:30:17.124Z,4.53
2023-04-16T00:30:48.497Z,3.58
2023-04-16T00:31:30.013Z,4.07
2023-04-16T00:32:01.446Z,3.00
2023-04-16T00:32:32.919Z,4.20
2023-04-16T00:33:04.759Z,3.35
2023-04-16T00:33:36.090Z,3.95
2023-04-16T00:34:07.666Z,4.00
2023-04-16T00:34:39.073Z,3.35
2023-04-16T00:35:10.513Z,3.40
2023-04-16T00:35:41.845Z,4.95
2023-04-16T00:36:13.331Z,3.85
2023-04-16T00:36:44.748Z,3.22
2023-04-16T00:37:16.276Z,3.88
2023-04-16T00:37:47.736Z,4.07
2023-04-16T00:38:19.101Z,3.85
2023-04-16T00:38:51.227Z,3.13
2023-04-16T00:39:22.625Z,3.70
2023-04-16T00:39:54.087Z,3.40
2023-04-16T00:40:28.980Z,3.33
2023-04-16T00:41:00.338Z,3.42
2023-04-16T00:41:31.737Z,4.10
2023-04-16T00:42:03.261Z,3.38
2023-04-16T00:42:37.004Z,3.28
2023-04-16T00:43:57.412Z,3.50
2023-04-16T00:44:29.290Z,3.53
2023-04-16T00:45:00.876Z,2.93
2023-04-16T00:45:32.722Z,2.65
2023-04-16T00:46:05.615Z,3.00
2023-04-16T00:46:37.880Z,3.75
2023-04-16T00:47:09.730Z,4.68
2023-04-16T00:47:41.254Z,3.65
2023-04-16T00:48:12.677Z,3.65
2023-04-16T00:48:44.871Z,5.18
2023-04-16T00:49:16.686Z,6.22
2023-04-16T00:49:48.161Z,3.75
2023-04-16T00:50:19.746Z,3.33
2023-04-16T00:50:51.338Z,3.88
2023-04-16T00:51:22.932Z,4.80
2023-04-16T00:51:54.481Z,4.68
2023-04-16T00:52:26.550Z,3.78
2023-04-16T00:52:58.244Z,4.15
2023-04-16T00:53:29.689Z,4.30
2023-04-16T00:54:01.796Z,5.22
2023-04-16T00:54:33.413Z,3.85
2023-04-16T00:55:07.589Z,5.05
2023-04-16T00:55:39.702Z,3.50
2023-04-16T00:56:11.980Z,4.43
2023-04-16T00:56:44.388Z,4.35
2023-04-16T00:57:15.863Z,4.28
2023-04-16T00:57:47.262Z,5.50
2023-04-16T00:58:18.842Z,4.40
2023-04-16T00:58:50.424Z,4.45
2023-04-16T00:59:21.991Z,4.22
2023-04-16T00:59:54.747Z,4.35
2023-04-16T01:00:26.929Z,4.60
2023-04-16T01:00:58.513Z,4.00
2023-04-16T01:01:30.009Z,4.28
2023-04-16T01:02:01.660Z,4.90
2023-04-16T01:02:34.361Z,4.72
2023-04-16T01:03:05.981Z,4.97
2023-04-16T01:03:44.798Z,4.28
2023-04-16T01:04:16.409Z,4.30
2023-04-16T01:04:48.016Z,4.32
2023-04-16T01:05:20.451Z,4.00
2023-04-16T01:05:52.526Z,4.35
2023-04-16T01:06:23.963Z,4.63
2023-04-16T01:06:55.553Z,4.60
2023-04-16T01:07:26.898Z,6.47
2023-04-16T01:08:00.615Z,4.97
2023-04-16T01:08:32.059Z,4.35
2023-04-16T01:09:03.798Z,4.82
2023-04-16T01:09:35.382Z,4.75
2023-04-16T01:10:07.315Z,4.20
2023-04-16T01:10:38.863Z,4.55
2023-04-16T01:11:12.002Z,4.38
2023-04-16T01:11:43.441Z,5.20
2023-04-16T01:12:14.874Z,4.07
2023-04-16T01:12:46.557Z,5.43
2023-04-16T01:13:17.994Z,4.93
2023-04-16T01:13:49.421Z,4.85
2023-04-16T01:14:20.775Z,4.80
2023-04-16T01:14:52.311Z,5.15
2023-04-16T01:15:23.793Z,4.68
2023-04-16T01:15:55.499Z,4.85
2023-04-16T01:16:27.091Z,4.57
2023-04-16T01:16:58.688Z,4.90
2023-04-16T01:17:30.499Z,5.85
2023-04-16T01:18:01.982Z,4.85
2023-04-16T01:18:33.919Z,5.38
2023-04-16T01:19:05.325Z,4.43
2023-04-16T01:19:36.896Z,5.70
2023-04-16T01:20:08.633Z,6.32
2023-04-16T01:20:40.054Z,5.30
2023-04-16T01:21:11.418Z,5.10
2023-04-16T01:21:42.896Z,5.57
2023-04-16T01:22:14.569Z,5.50
2023-04-16T01:22:46.089Z,5.72
2023-04-16T01:23:20.546Z,4.78
2023-04-16T01:23:51.955Z,5.63
2023-04-16T01:24:23.319Z,5.25
2023-04-16T01:24:54.679Z,5.50
2023-04-16T01:25:26.079Z,5.82
2023-04-16T01:25:57.719Z,5.43
2023-04-16T01:26:29.393Z,6.43
2023-04-16T01:27:01.113Z,5.82
2023-04-16T01:27:32.542Z,5.60
2023-04-16T01:28:04.208Z,4.97
2023-04-16T01:28:36.073Z,5.22
2023-04-16T01:29:07.647Z,5.22
2023-04-16T01:29:39.215Z,5.45
2023-04-16T01:30:10.885Z,5.95
2023-04-16T01:30:42.438Z,4.90
2023-04-16T01:31:14.039Z,6.65
2023-04-16T01:31:46.707Z,5.68
2023-04-16T01:32:18.263Z,5.80
2023-04-16T01:32:49.728Z,5.17
2023-04-16T01:33:21.477Z,6.78
2023-04-16T01:33:52.973Z,5.28
2023-04-16T01:34:24.667Z,6.53
2023-04-16T01:34:56.213Z,6.32
2023-04-16T01:35:27.627Z,4.68
2023-04-16T01:35:59.110Z,5.45
2023-04-16T01:36:30.580Z,5.60
2023-04-16T01:37:03.821Z,5.32
2023-04-16T01:37:35.240Z,5.15
2023-04-16T01:38:09.059Z,5.00
2023-04-16T01:38:40.631Z,6.20
2023-04-16T01:39:15.662Z,5.30
2023-04-16T01:39:47.086Z,5.35
2023-04-16T01:40:19.144Z,6.05
2023-04-16T01:40:50.811Z,5.80
2023-04-16T01:41:22.649Z,5.35
2023-04-16T01:41:54.033Z,5.63
2023-04-16T01:42:25.497Z,5.63
2023-04-16T01:42:57.080Z,5.40
2023-04-16T01:43:47.031Z,5.67
2023-04-16T01:44:18.438Z,4.45
2023-04-16T01:44:49.830Z,4.72
2023-04-16T01:45:21.874Z,5.43
2023-04-16T01:46:18.626Z,5.95
2023-04-16T01:46:50.181Z,5.35
2023-04-16T01:47:21.617Z,5.65
2023-04-16T01:47:53.211Z,5.35
2023-04-16T01:48:24.751Z,5.82
2023-04-16T01:48:56.961Z,5.97
2023-04-16T01:49:29.307Z,5.63
2023-04-16T01:50:01.444Z,6.00
2023-04-16T01:50:33.402Z,5.18
2023-04-16T01:51:05.120Z,5.55
2023-04-16T01:51:36.653Z,5.75
2023-04-16T01:52:08.610Z,5.45
2023-04-16T01:52:40.026Z,6.13
2023-04-16T01:53:11.408Z,5.28
2023-04-16T01:53:42.761Z,5.93
2023-04-16T01:54:14.186Z,6.25
2023-04-16T01:54:45.612Z,6.43
2023-04-16T01:55:17.048Z,5.28
2023-04-16T01:55:48.378Z,6.32
2023-04-16T01:56:19.925Z,6.45
2023-04-16T01:56:51.404Z,7.65
2023-04-16T01:57:22.988Z,5.60
2023-04-16T01:57:54.348Z,6.13
2023-04-16T01:58:28.459Z,6.53
2023-04-16T01:58:59.831Z,6.38
2023-04-16T01:59:31.390Z,5.75
2023-04-16T02:00:04.269Z,4.87
2023-04-16T02:00:35.697Z,6.40
2023-04-16T02:01:07.056Z,5.97
2023-04-16T02:01:38.821Z,5.90
2023-04-16T02:02:11.812Z,6.40
2023-04-16T02:02:43.469Z,5.97
2023-04-16T02:03:17.543Z,6.00
2023-04-16T02:03:49.555Z,7.07
2023-04-16T02:04:21.139Z,7.80
2023-04-16T02:04:52.559Z,5.43
2023-04-16T02:05:23.958Z,6.67
2023-04-16T02:05:55.646Z,7.15
2023-04-16T02:06:27.430Z,5.65
2023-04-16T02:06:59.104Z,6.75
2023-04-16T02:07:31.690Z,7.13
2023-04-16T02:08:06.284Z,6.47
2023-04-16T02:08:37.990Z,6.18
2023-04-16T02:09:09.538Z,6.93
2023-04-16T02:09:41.417Z,5.40
2023-04-16T02:10:12.839Z,6.55
2023-04-16T02:10:48.299Z,6.13
2023-04-16T02:11:19.991Z,6.75
2023-04-16T02:11:51.426Z,6.40
2023-04-16T02:12:23.001Z,6.43
2023-04-16T02:12:54.537Z,8.02
2023-04-16T02:13:26.112Z,7.22
2023-04-16T02:13:57.576Z,7.50
2023-04-16T02:14:29.967Z,7.38
2023-04-16T02:15:01.388Z,7.60
2023-04-16T02:15:32.995Z,6.82
2023-04-16T02:16:04.710Z,8.57
2023-04-16T02:16:36.311Z,8.90
2023-04-16T02:17:07.850Z,7.35
2023-04-16T02:17:39.269Z,8.75
2023-04-16T02:18:10.672Z,8.82
2023-04-16T02:18:42.076Z,8.80
2023-04-16T02:19:13.537Z,6.57
2023-04-16T02:19:45.105Z,7.35
2023-04-16T02:20:17.645Z,8.30
2023-04-16T02:20:52.059Z,7.95
2023-04-16T02:21:23.479Z,7.53
2023-04-16T02:21:55.203Z,7.28
2023-04-16T02:22:26.704Z,7.38
2023-04-16T02:22:58.045Z,8.68
2023-04-16T02:23:29.499Z,7.35
2023-04-16T02:24:00.860Z,8.40
2023-04-16T02:24:32.280Z,7.60
2023-04-16T02:25:03.981Z,7.07
2023-04-16T02:25:42.140Z,8.23
2023-04-16T02:26:13.639Z,7.97
2023-04-16T02:26:45.381Z,7.27
2023-04-16T02:27:16.836Z,7.78
2023-04-16T02:27:48.428Z,8.05
2023-04-16T02:28:19.854Z,8.57
2023-04-16T02:28:51.830Z,8.13
2023-04-16T02:29:23.266Z,7.65
2023-04-16T02:29:54.614Z,8.07
2023-04-16T02:30:26.567Z,7.20
2023-04-16T02:30:59.021Z,8.10
2023-04-16T02:31:30.679Z,7.72
2023-04-16T02:32:02.098Z,9.07
2023-04-16T02:32:33.724Z,7.72
2023-04-16T02:33:07.249Z,7.97
2023-04-16T02:33:38.923Z,8.50
2023-04-16T02:34:10.551Z,7.53
2023-04-16T02:34:42.971Z,7.28
2023-04-16T02:35:14.330Z,7.95
2023-04-16T02:35:45.725Z,8.10
2023-04-16T02:36:17.283Z,9.32
2023-04-16T02:36:48.636Z,6.93
2023-04-16T02:37:20.076Z,8.00
2023-04-16T02:37:51.474Z,7.93
2023-04-16T02:38:22.897Z,8.25
2023-04-16T02:38:54.345Z,8.80
2023-04-16T02:39:25.831Z,8.32
2023-04-16T02:39:58.009Z,8.75
2023-04-16T02:40:29.722Z,9.07
2023-04-16T02:41:01.153Z,9.85
2023-04-16T02:41:32.576Z,9.15
2023-04-16T02:42:04.113Z,9.38
2023-04-16T02:42:35.503Z,9.40
2023-04-16T02:43:06.839Z,9.00
2023-04-16T02:43:38.434Z,8.48
2023-04-16T02:44:09.923Z,9.50
2023-04-16T02:44:41.461Z,9.15
2023-04-16T02:45:13.105Z,8.85
2023-04-16T02:45:44.778Z,9.38
2023-04-16T02:46:16.686Z,8.30
2023-04-16T02:46:48.058Z,9.35
2023-04-16T02:47:19.671Z,7.85
2023-04-16T02:47:51.340Z,8.63
2023-04-16T02:48:22.726Z,7.78
2023-04-16T02:48:54.083Z,8.45
2023-04-16T02:49:25.478Z,8.32
2023-04-16T02:49:56.823Z,7.70
2023-04-16T02:50:28.228Z,8.88
2023-04-16T02:50:59.630Z,8.10
2023-04-16T02:51:31.032Z,8.25
2023-04-16T02:52:02.388Z,9.38
2023-04-16T02:52:33.773Z,7.90
2023-04-16T02:53:06.559Z,8.90
2023-04-16T02:53:37.914Z,8.40
2023-04-16T02:54:09.281Z,8.70
2023-04-16T02:54:40.723Z,9.50
2023-04-16T02:55:12.147Z,10.27
2023-04-16T02:55:52.405Z,10.02
2023-04-16T02:56:23.801Z,10.00
2023-04-16T02:56:55.535Z,9.18
2023-04-16T02:57:27.058Z,9.32
2023-04-16T02:57:58.474Z,8.57
2023-04-16T02:58:29.841Z,8.83
2023-04-16T02:59:01.380Z,8.30
2023-04-16T02:59:32.846Z,9.60
2023-04-16T03:00:05.101Z,9.80
2023-04-16T03:00:38.026Z,9.10
2023-04-16T03:01:09.702Z,8.95
2023-04-16T03:01:41.263Z,8.93
2023-04-16T03:02:13.905Z,9.02
2023-04-16T03:02:45.445Z,8.50
2023-04-16T03:03:17.114Z,9.25
2023-04-16T03:03:48.742Z,9.50
2023-04-16T03:04:20.131Z,9.43
2023-04-16T03:04:51.669Z,8.82
2023-04-16T03:05:23.096Z,8.80
2023-04-16T03:05:54.479Z,9.23
2023-04-16T03:06:26.965Z,8.55
2023-04-16T03:06:58.361Z,8.55
2023-04-16T03:07:29.845Z,9.45
2023-04-16T03:08:01.192Z,9.60
2023-04-16T03:08:32.752Z,8.52
2023-04-16T03:09:04.184Z,8.23
2023-04-16T03:09:35.900Z,8.90
2023-04-16T03:10:08.254Z,9.60
2023-04-16T03:10:40.064Z,9.25
2023-04-16T03:11:11.639Z,8.95
2023-04-16T03:11:42.997Z,9.80
2023-04-16T03:12:14.438Z,9.80
2023-04-16T03:12:46.004Z,9.90
2023-04-16T03:13:17.413Z,9.35
2023-04-16T03:13:49.034Z,9.55
2023-04-16T03:14:20.620Z,9.77
2023-04-16T03:14:52.668Z,9.80
2023-04-16T03:15:24.251Z,10.55
2023-04-16T03:15:55.707Z,10.10
2023-04-16T03:16:27.303Z,9.05
2023-04-16T03:16:58.904Z,10.32
2023-04-16T03:17:30.422Z,10.13
2023-04-16T03:18:01.879Z,9.95
2023-04-16T03:18:33.429Z,10.77
2023-04-16T03:19:04.795Z,9.50
2023-04-16T03:19:36.215Z,10.93
2023-04-16T03:20:08.448Z,9.57
2023-04-16T03:20:39.787Z,11.38
2023-04-16T03:21:11.228Z,11.02
2023-04-16T03:21:42.768Z,12.15
2023-04-16T03:22:14.199Z,10.98
2023-04-16T03:22:46.958Z,10.05
2023-04-16T03:23:18.400Z,10.75
2023-04-16T03:23:49.790Z,10.05
2023-04-16T03:24:21.165Z,10.15
2023-04-16T03:24:52.567Z,11.03
2023-04-16T03:25:23.950Z,10.15
2023-04-16T03:25:55.363Z,10.45
2023-04-16T03:26:27.079Z,10.57
2023-04-16T03:26:58.884Z,10.93
2023-04-16T03:27:30.348Z,11.32
2023-04-16T03:28:03.704Z,10.57
2023-04-16T03:28:35.372Z,9.82
2023-04-16T03:29:07.236Z,10.32
2023-04-16T03:29:39.089Z,10.15
2023-04-16T03:30:14.090Z,9.63
2023-04-16T03:30:52.745Z,10.68
2023-04-16T03:31:24.942Z,10.15
2023-04-16T03:31:56.362Z,9.65
2023-04-16T03:32:27.980Z,9.35
2023-04-16T03:32:59.568Z,9.80
2023-04-16T03:33:31.125Z,9.43
2023-04-16T03:34:03.326Z,10.07
2023-04-16T03:34:34.712Z,9.68
2023-04-16T03:35:07.497Z,9.20
2023-04-16T03:35:38.870Z,9.43
2023-04-16T03:36:10.391Z,9.88
2023-04-16T03:36:41.809Z,9.50
2023-04-16T03:37:13.378Z,8.20
2023-04-16T03:37:44.816Z,9.77
2023-04-16T03:38:16.318Z,10.50
2023-04-16T03:38:47.725Z,9.38
2023-04-16T03:39:19.449Z,9.73
2023-04-16T03:39:50.894Z,9.18
2023-04-16T03:40:22.502Z,10.48
2023-04-16T03:40:54.018Z,9.67
2023-04-16T03:41:25.432Z,9.70
2023-04-16T03:41:56.914Z,9.05
2023-04-16T03:42:28.449Z,10.13
2023-04-16T03:42:59.922Z,10.20
2023-04-16T03:43:31.260Z,9.75
2023-04-16T03:44:02.799Z,9.18
2023-04-16T03:44:34.480Z,9.20
2023-04-16T03:45:06.399Z,9.63
2023-04-16T03:45:44.091Z,9.65
2023-04-16T03:46:15.946Z,9.30
2023-04-16T03:46:47.374Z,9.35
2023-04-16T03:47:19.018Z,9.73
2023-04-16T03:47:52.652Z,9.93
2023-04-16T03:48:24.266Z,9.30
2023-04-16T03:48:55.816Z,9.68
2023-04-16T03:49:27.368Z,8.73
2023-04-16T03:49:59.068Z,9.52
2023-04-16T03:50:30.653Z,10.15
2023-04-16T03:51:02.705Z,8.90
2023-04-16T03:51:34.081Z,10.20
2023-04-16T03:52:05.629Z,9.60
2023-04-16T03:52:37.178Z,9.45
2023-04-16T03:53:08.574Z,8.73
2023-04-16T03:53:39.926Z,9.48
2023-04-16T03:54:11.799Z,10.60
2023-04-16T03:54:43.368Z,9.52
2023-04-16T03:55:15.013Z,9.82
2023-04-16T03:55:51.370Z,8.95
2023-04-16T03:56:22.801Z,8.98
2023-04-16T03:56:54.288Z,9.33
2023-04-16T03:57:25.739Z,9.73
2023-04-16T03:57:57.450Z,9.63
2023-04-16T03:58:28.862Z,10.73
2023-04-16T03:59:00.249Z,10.90
2023-04-16T03:59:31.826Z,9.85
2023-04-16T04:00:03.520Z,10.60
2023-04-16T04:00:35.226Z,11.48
2023-04-16T04:01:06.606Z,11.25
2023-04-16T04:01:38.189Z,11.45
2023-04-16T04:02:09.707Z,12.10
2023-04-16T04:02:41.689Z,10.82
2023-04-16T04:03:14.037Z,9.82
2023-04-16T04:03:45.978Z,11.00
2023-04-16T04:04:17.851Z,11.45
2023-04-16T04:04:49.323Z,10.50
2023-04-16T04:05:20.796Z,11.02
2023-04-16T04:05:52.214Z,11.38
2023-04-16T04:06:23.619Z,11.23
2023-04-16T04:06:54.990Z,10.95
2023-04-16T04:07:26.554Z,11.10
2023-04-16T04:07:57.886Z,9.88
2023-04-16T04:08:29.285Z,10.77
2023-04-16T04:09:00.723Z,10.38
2023-04-16T04:09:32.206Z,11.80
2023-04-16T04:10:03.921Z,10.65
2023-04-16T04:10:36.183Z,10.07
2023-04-16T04:11:07.550Z,9.93
2023-04-16T04:11:39.000Z,10.50
2023-04-16T04:12:10.375Z,10.60
2023-04-16T04:12:41.820Z,10.07
2023-04-16T04:13:13.172Z,9.80
2023-04-16T04:13:44.555Z,10.32
2023-04-16T04:14:15.920Z,11.35
2023-04-16T04:14:47.322Z,10.60
2023-04-16T04:15:18.757Z,11.45
2023-04-16T04:15:50.398Z,11.15
2023-04-16T04:16:22.104Z,10.13
2023-04-16T04:16:53.495Z,10.27
2023-04-16T04:17:24.924Z,10.80
2023-04-16T04:17:56.626Z,10.70
2023-04-16T04:18:27.975Z,9.90
2023-04-16T04:19:00.363Z,10.73
2023-04-16T04:19:31.768Z,10.60
2023-04-16T04:20:03.450Z,11.25
2023-04-16T04:20:34.887Z,10.40
2023-04-16T04:21:09.372Z,10.35
2023-04-16T04:21:40.881Z,10.80
2023-04-16T04:22:12.303Z,10.30
2023-04-16T04:22:43.661Z,10.15
2023-04-16T04:23:15.388Z,9.87
2023-04-16T04:23:46.795Z,9.52
2023-04-16T04:24:18.154Z,9.98
2023-04-16T04:24:49.486Z,10.30
2023-04-16T04:25:20.919Z,9.80
2023-04-16T04:25:52.361Z,9.93
2023-04-16T04:26:23.813Z,10.98
2023-04-16T04:26:55.177Z,11.02
2023-04-16T04:27:27.131Z,9.88
2023-04-16T04:27:58.464Z,10.43
2023-04-16T04:28:30.771Z,10.20
2023-04-16T04:29:02.136Z,10.38
2023-04-16T04:29:33.512Z,11.40
2023-04-16T04:30:05.754Z,10.95
2023-04-16T04:30:37.158Z,12.38
2023-04-16T04:31:08.524Z,9.68
2023-04-16T04:31:40.028Z,10.88
2023-04-16T04:32:11.749Z,10.20
2023-04-16T04:32:43.242Z,11.25
2023-04-16T04:33:14.621Z,11.75
2023-04-16T04:33:46.308Z,11.37
2023-04-16T04:34:17.674Z,11.10
2023-04-16T04:34:49.059Z,11.20
2023-04-16T04:35:20.518Z,10.60
2023-04-16T04:35:52.565Z,11.23
2023-04-16T04:36:23.971Z,10.07
2023-04-16T04:36:55.551Z,10.25
2023-04-16T04:37:26.959Z,9.68
2023-04-16T04:37:58.412Z,10.25
2023-04-16T04:38:30.404Z,10.13
2023-04-16T04:39:01.809Z,11.17
2023-04-16T04:39:33.256Z,10.00
2023-04-16T04:40:05.025Z,10.95
2023-04-16T04:40:36.453Z,10.98
2023-04-16T04:41:07.893Z,10.35
2023-04-16T04:41:39.251Z,11.68
2023-04-16T04:42:11.025Z,9.55
2023-04-16T04:42:42.491Z,9.57
2023-04-16T04:43:14.354Z,10.35
2023-04-16T04:43:45.749Z,10.63
2023-04-16T04:44:17.126Z,9.27
2023-04-16T04:44:48.567Z,10.23
2023-04-16T04:45:19.936Z,9.45
2023-04-16T04:45:51.470Z,9.85
2023-04-16T04:46:22.910Z,9.02
2023-04-16T04:46:54.411Z,10.18
2023-04-16T04:47:26.227Z,10.15
2023-04-16T04:47:57.685Z,10.18
2023-04-16T04:48:29.319Z,10.43
2023-04-16T04:49:00.770Z,10.93
2023-04-16T04:49:32.137Z,11.53
2023-04-16T04:50:03.766Z,10.57
2023-04-16T04:50:36.107Z,10.68
2023-04-16T04:51:07.581Z,10.77
2023-04-16T04:51:39.023Z,10.05
2023-04-16T04:52:11.649Z,11.57
2023-04-16T04:52:43.030Z,10.38
2023-04-16T04:53:14.918Z,10.77
2023-04-16T04:53:46.543Z,11.32
2023-04-16T04:54:17.906Z,12.35
2023-04-16T04:54:49.252Z,10.03
2023-04-16T04:55:20.884Z,11.30
2023-04-16T04:55:54.200Z,11.85
2023-04-16T04:56:28.768Z,11.35
2023-04-16T04:57:00.311Z,12.45
2023-04-16T04:57:31.738Z,10.18
2023-04-16T04:58:04.589Z,10.23
2023-04-16T04:58:36.106Z,10.68
2023-04-16T04:59:07.874Z,10.63
2023-04-16T04:59:39.546Z,10.13
2023-04-16T05:00:11.430Z,10.57
2023-04-16T05:00:43.033Z,10.57
2023-04-16T05:01:14.763Z,9.75
2023-04-16T05:01:46.179Z,10.85
2023-04-16T05:02:17.712Z,9.63
2023-04-16T05:02:49.701Z,10.63
2023-04-16T05:03:21.960Z,10.02
2023-04-16T05:03:53.686Z,10.48
2023-04-16T05:04:25.472Z,9.77
2023-04-16T05:04:57.012Z,10.18
2023-04-16T05:05:28.417Z,9.70
2023-04-16T05:05:59.855Z,10.07
2023-04-16T05:06:31.641Z,10.57
2023-04-16T05:07:03.216Z,12.30
2023-04-16T05:07:34.590Z,10.65
2023-04-16T05:08:06.464Z,9.77
2023-04-16T05:08:37.881Z,11.25
2023-04-16T05:09:12.002Z,10.02
2023-04-16T05:09:43.411Z,10.52
2023-04-16T05:10:15.146Z,11.10
2023-04-16T05:10:46.471Z,10.73
2023-04-16T05:11:17.855Z,9.80
2023-04-16T05:11:49.301Z,10.88
2023-04-16T05:12:20.692Z,10.25
2023-04-16T05:12:52.132Z,10.30
2023-04-16T05:13:23.670Z,10.10
2023-04-16T05:13:55.086Z,11.55
2023-04-16T05:14:26.521Z,8.90
2023-04-16T05:14:57.903Z,10.10
2023-04-16T05:15:29.633Z,10.13
2023-04-16T05:16:01.068Z,10.53
2023-04-16T05:16:32.519Z,10.23
2023-04-16T05:17:04.126Z,10.75
2023-04-16T05:17:35.771Z,11.57
2023-04-16T05:18:07.177Z,10.23
2023-04-16T05:18:38.619Z,10.80
2023-04-16T05:19:10.559Z,10.10
2023-04-16T05:19:42.123Z,11.15
2023-04-16T05:20:13.621Z,10.48
2023-04-16T05:20:45.142Z,11.85
2023-04-16T05:21:16.684Z,10.73
2023-04-16T05:21:48.056Z,11.23
2023-04-16T05:22:19.389Z,10.80
2023-04-16T05:22:51.502Z,10.90
2023-04-16T05:23:22.961Z,11.75
2023-04-16T05:23:54.407Z,12.07
2023-04-16T05:25:14.780Z,10.25
2023-04-16T05:25:46.323Z,10.27
2023-04-16T05:26:17.784Z,10.25
2023-04-16T05:26:49.155Z,10.97
2023-04-16T05:27:20.675Z,10.65
2023-04-16T05:27:52.140Z,10.68
2023-04-16T05:28:23.616Z,10.70
2023-04-16T05:28:54.985Z,11.95
2023-04-16T05:29:26.583Z,10.63
2023-04-16T05:29:58.103Z,11.45
2023-04-16T05:30:29.449Z,11.57
2023-04-16T05:31:01.124Z,10.18
2023-04-16T05:31:32.625Z,10.38
2023-04-16T05:32:04.159Z,10.73
2023-04-16T05:32:35.845Z,10.40
2023-04-16T05:33:07.329Z,10.25
2023-04-16T05:33:38.683Z,10.63
2023-04-16T05:34:10.352Z,10.90
2023-04-16T05:34:41.734Z,9.65
2023-04-16T05:35:15.225Z,10.63
2023-04-16T05:35:48.372Z,10.48
2023-04-16T05:36:19.778Z,11.10
2023-04-16T05:36:51.146Z,11.68
2023-04-16T05:37:22.501Z,10.17
2023-04-16T05:37:53.909Z,10.20
2023-04-16T05:38:25.345Z,10.27
2023-04-16T05:38:56.822Z,10.82
2023-04-16T05:39:28.159Z,11.57
2023-04-16T05:39:59.541Z,10.05
2023-04-16T05:40:31.771Z,10.73
2023-04-16T05:41:04.115Z,9.60
2023-04-16T05:41:35.840Z,10.73
2023-04-16T05:42:07.453Z,10.10
2023-04-16T05:42:38.939Z,10.50
2023-04-16T05:43:10.341Z,11.40
2023-04-16T05:43:41.726Z,11.77
2023-04-16T05:44:13.209Z,11.05
2023-04-16T05:44:44.565Z,10.98
2023-04-16T05:45:15.949Z,10.60
2023-04-16T05:45:47.525Z,11.48
2023-04-16T05:46:19.079Z,11.18
2023-04-16T05:46:50.667Z,10.77
2023-04-16T05:47:22.289Z,10.43
2023-04-16T05:47:53.702Z,10.57
2023-04-16T05:48:25.122Z,11.07
2023-04-16T05:48:56.534Z,10.60
2023-04-16T05:49:27.967Z,11.85
2023-04-16T05:49:59.436Z,11.55
2023-04-16T05:50:30.971Z,11.13
2023-04-16T05:51:02.704Z,11.52
2023-04-16T05:51:34.095Z,11.35
2023-04-16T05:52:05.800Z,10.82
2023-04-16T05:52:38.344Z,10.98
2023-04-16T05:53:09.831Z,9.57
2023-04-16T05:53:41.719Z,10.75
2023-04-16T05:54:13.237Z,10.30
2023-04-16T05:54:44.840Z,11.07
2023-04-16T05:55:16.267Z,10.95
2023-04-16T05:55:47.744Z,9.82
2023-04-16T05:56:19.222Z,10.85
2023-04-16T05:56:51.027Z,10.35
2023-04-16T05:57:22.490Z,11.65
2023-04-16T05:57:53.894Z,10.55
2023-04-16T05:58:25.230Z,11.20
2023-04-16T05:58:56.609Z,10.95
2023-04-16T05:59:29.268Z,11.30
2023-04-16T06:00:00.726Z,9.93
2023-04-16T06:00:35.392Z,11.05
2023-04-16T06:01:07.506Z,10.48
2023-04-16T06:01:39.134Z,10.15
2023-04-16T06:02:10.910Z,11.35
2023-04-16T06:02:42.746Z,9.82
2023-04-16T06:03:14.347Z,9.98
2023-04-16T06:03:46.079Z,11.50
2023-04-16T06:04:17.741Z,10.90
2023-04-16T06:04:49.908Z,10.77
2023-04-16T06:05:21.521Z,11.07
2023-04-16T06:05:53.275Z,10.25
2023-04-16T06:06:24.852Z,11.13
2023-04-16T06:06:56.471Z,11.20
2023-04-16T06:07:27.847Z,9.88
2023-04-16T06:07:59.290Z,11.43
2023-04-16T06:08:31.000Z,10.63
2023-04-16T06:09:02.351Z,11.13
2023-04-16T06:09:33.887Z,10.73
2023-04-16T06:10:05.828Z,11.18
2023-04-16T06:10:37.447Z,11.50
2023-04-16T06:11:08.883Z,11.02
2023-04-16T06:11:40.415Z,11.00
2023-04-16T06:12:11.854Z,11.02
2023-04-16T06:12:43.372Z,10.98
2023-04-16T06:13:14.871Z,10.48
2023-04-16T06:13:46.246Z,10.25
2023-04-16T06:14:17.580Z,10.37
2023-04-16T06:14:49.289Z,10.93
2023-04-16T06:16:09.511Z,10.68
2023-04-16T06:16:41.079Z,10.85
2023-04-16T06:17:12.530Z,10.80
2023-04-16T06:17:44.236Z,10.75
2023-04-16T06:18:15.793Z,11.57
2023-04-16T06:18:47.404Z,12.05
2023-04-16T06:19:18.787Z,12.18
2023-04-16T06:19:50.188Z,11.33
2023-04-16T06:20:21.829Z,12.60
2023-04-16T06:20:53.405Z,11.30
2023-04-16T06:21:26.138Z,10.93
2023-04-16T06:21:58.033Z,11.30
2023-04-16T06:22:29.694Z,11.05
2023-04-16T06:23:01.208Z,11.27
2023-04-16T06:23:32.583Z,11.50
2023-04-16T06:24:04.135Z,10.32
2023-04-16T06:24:36.027Z,11.48
2023-04-16T06:25:07.917Z,11.23
2023-04-16T06:25:39.565Z,11.60
2023-04-16T06:26:11.750Z,12.35
2023-04-16T06:26:43.103Z,11.15
2023-04-16T06:27:14.620Z,11.38
2023-04-16T06:27:46.124Z,11.20
2023-04-16T06:28:17.481Z,11.27
2023-04-16T06:28:49.503Z,10.57
2023-04-16T06:29:22.510Z,10.60
2023-04-16T06:29:57.590Z,13.02
2023-04-16T06:30:29.184Z,12.13
2023-04-16T06:31:01.141Z,11.55
2023-04-16T06:31:32.693Z,11.63
2023-04-16T06:32:04.326Z,13.18
2023-04-16T06:32:35.856Z,12.18
2023-04-16T06:33:07.242Z,11.90
2023-04-16T06:33:38.600Z,11.07
2023-04-16T06:34:10.201Z,12.07
2023-04-16T06:34:41.546Z,12.07
2023-04-16T06:35:13.064Z,12.50
2023-04-16T06:35:44.445Z,12.20
2023-04-16T06:36:16.954Z,11.50
2023-04-16T06:36:48.304Z,12.75
2023-04-16T06:37:19.697Z,12.80
2023-04-16T06:37:51.099Z,11.98
2023-04-16T06:38:22.692Z,11.60
2023-04-16T06:38:54.054Z,12.45
2023-04-16T06:39:25.877Z,13.38
2023-04-16T06:39:57.396Z,12.00
2023-04-16T06:40:28.761Z,12.20
2023-04-16T06:41:00.548Z,13.37
2023-04-16T06:41:32.187Z,12.80
2023-04-16T06:42:04.261Z,12.40
2023-04-16T06:42:35.799Z,13.45
2023-04-16T06:43:07.246Z,12.43
2023-04-16T06:43:38.759Z,12.73
2023-04-16T06:44:10.373Z,13.15
2023-04-16T06:44:42.017Z,13.13
2023-04-16T06:45:13.648Z,11.75
2023-04-16T06:45:45.519Z,12.98
2023-04-16T06:46:17.024Z,12.10
2023-04-16T06:46:48.510Z,12.80
2023-04-16T06:47:19.949Z,13.38
2023-04-16T06:47:52.339Z,12.60
2023-04-16T06:48:23.959Z,13.98
2023-04-16T06:48:55.556Z,13.15
2023-04-16T06:49:27.077Z,12.68
2023-04-16T06:49:58.406Z,13.45
2023-04-16T06:50:29.916Z,14.23
2023-04-16T06:51:01.855Z,12.73
2023-04-16T06:51:33.594Z,12.37
2023-04-16T06:52:05.917Z,12.57
2023-04-16T06:52:37.740Z,12.77
2023-04-16T06:53:09.400Z,13.23
2023-04-16T06:53:41.015Z,12.82
2023-04-16T06:54:12.437Z,12.68
2023-04-16T06:54:43.846Z,13.63
2023-04-16T06:55:15.452Z,12.90
2023-04-16T06:55:46.797Z,12.65
2023-04-16T06:56:18.202Z,13.18
2023-04-16T06:56:49.563Z,13.57
2023-04-16T06:57:20.998Z,13.60
2023-04-16T06:57:52.358Z,13.05
2023-04-16T06:58:23.781Z,13.10
2023-04-16T06:58:57.060Z,13.30
2023-04-16T06:59:28.568Z,13.43
2023-04-16T06:59:59.950Z,13.95